createdAt,value
2023-05-01T00:02:34.436Z,94.27
2023-05-01T00:07:42.733Z,104.10
2023-05-01T00:12:48.204Z,90.97
2023-05-01T00:17:53.782Z,118.83
2023-05-01T00:23:02.659Z,120.50
2023-05-01T00:28:08.480Z,122.30
2023-05-01T00:33:13.633Z,87.77
2023-05-01T00:38:24.442Z,89.77
2023-05-01T00:43:29.898Z,89.63
2023-05-01T00:48:35.103Z,100.33
2023-05-01T00:53:46.260Z,99.30
2023-05-01T00:58:55.347Z,98.00
2023-05-01T01:04:01.650Z,92.77
2023-05-01T01:09:26.251Z,105.60
2023-05-01T01:14:36.931Z,115.17
2023-05-01T01:20:17.778Z,118.40
2023-05-01T01:26:01.385Z,134.50
2023-05-01T01:31:23.651Z,137.57
2023-05-01T01:36:40.352Z,133.73
2023-05-01T01:41:53.170Z,130.73
2023-05-01T01:47:02.259Z,135.73
2023-05-01T01:52:14.410Z,125.40
2023-05-01T01:57:21.792Z,116.80
2023-05-01T02:02:29.576Z,118.43
2023-05-01T02:07:38.806Z,118.53
2023-05-01T02:12:46.295Z,113.43
2023-05-01T02:17:54.332Z,115.17
2023-05-01T02:23:03.375Z,115.37
2023-05-01T02:28:16.329Z,107.27
2023-05-01T02:33:21.656Z,104.80
2023-05-01T02:38:29.822Z,96.60
2023-05-01T02:43:36.949Z,105.90
2023-05-01T02:48:45.280Z,102.67
2023-05-01T02:53:53.767Z,107.97
2023-05-01T02:59:00.907Z,100.43
2023-05-01T03:04:06.059Z,104.83
2023-05-01T03:09:14.453Z,107.67
2023-05-01T03:14:19.928Z,89.93
2023-05-01T03:19:25.661Z,108.00
2023-05-01T03:24:33.859Z,117.57
2023-05-01T03:29:39.870Z,126.90
2023-05-01T03:34:45.059Z,116.77
2023-05-01T03:39:56.608Z,122.10
2023-05-01T03:45:21.395Z,121.27
2023-05-01T03:50:26.822Z,113.57
2023-05-01T03:55:37.285Z,111.30
2023-05-01T04:00:43.238Z,115.07
2023-05-01T04:05:49.238Z,103.97
2023-05-01T04:10:59.465Z,83.47
2023-05-01T04:16:05.105Z,88.27
2023-05-01T04:21:11.098Z,82.73
2023-05-01T04:26:22.302Z,77.87
2023-05-01T04:31:28.109Z,75.70
2023-05-01T04:36:35.591Z,75.97
2023-05-01T04:41:44.057Z,74.17
2023-05-01T04:46:49.741Z,62.07
2023-05-01T04:51:57.171Z,51.97
2023-05-01T04:57:09.003Z,57.37
2023-05-01T05:02:14.224Z,53.37
2023-05-01T05:07:21.861Z,50.77
2023-05-01T05:12:52.679Z,48.20
2023-05-01T05:17:58.112Z,48.37
2023-05-01T05:23:04.882Z,45.47
2023-05-01T05:28:12.785Z,34.20
2023-05-01T05:33:18.550Z,30.30
2023-05-01T05:38:25.857Z,30.43
2023-05-01T05:43:37.545Z,24.97
2023-05-01T05:48:46.240Z,19.97
2023-05-01T05:53:52.578Z,17.30
2023-05-01T05:59:03.760Z,19.20
2023-05-01T06:04:09.760Z,17.53
2023-05-01T06:09:19.198Z,15.13
2023-05-01T06:14:26.974Z,13.87
2023-05-01T06:19:43.187Z,15.00
2023-05-01T06:24:49.774Z,10.50
2023-05-01T06:30:01.678Z,14.90
2023-05-01T06:35:09.551Z,11.37
2023-05-01T06:40:16.982Z,13.07
2023-05-01T06:45:27.823Z,9.57
2023-05-01T06:50:33.609Z,9.97
2023-05-01T06:55:40.127Z,10.70
2023-05-01T07:00:47.825Z,9.53
2023-05-01T07:05:54.138Z,12.03
2023-05-01T07:11:00.584Z,11.73
2023-05-01T07:16:09.496Z,9.23
2023-05-01T07:21:14.758Z,10.13
2023-05-01T07:26:20.238Z,9.60
2023-05-01T07:31:28.255Z,8.67
2023-05-01T07:36:36.829Z,7.67
2023-05-01T07:41:41.832Z,8.33
2023-05-01T07:46:49.743Z,8.77
2023-05-01T07:51:58.368Z,11.60
2023-05-01T07:57:05.778Z,12.07
2023-05-01T08:02:18.978Z,8.33
2023-05-01T08:07:24.964Z,12.80
2023-05-01T08:12:34.214Z,7.60
2023-05-01T08:17:42.286Z,7.10
2023-05-01T08:22:50.087Z,8.03
2023-05-01T08:27:55.412Z,7.60
2023-05-01T08:33:03.714Z,6.67
2023-05-01T08:38:08.874Z,7.70
2023-05-01T08:43:14.341Z,7.53
2023-05-01T08:48:23.908Z,7.17
2023-05-01T08:53:32.040Z,6.83
2023-05-01T08:58:38.863Z,5.97
2023-05-01T09:03:47.432Z,9.87
2023-05-01T09:08:52.636Z,8.40
2023-05-01T09:14:00.578Z,7.97
2023-05-01T09:19:08.493Z,7.20
2023-05-01T09:24:13.858Z,7.03
2023-05-01T09:29:40.848Z,7.53
2023-05-01T09:34:50.342Z,8.17
2023-05-01T09:40:06.120Z,7.67
2023-05-01T09:45:17.185Z,6.57
2023-05-01T09:50:38.785Z,6.83
2023-05-01T09:55:43.869Z,7.43
2023-05-01T10:00:52.972Z,6.57
2023-05-01T10:06:02.137Z,7.90
2023-05-01T10:11:08.475Z,8.40
2023-05-01T10:16:32.007Z,6.30
2023-05-01T10:21:39.893Z,8.53
2023-05-01T10:26:46.252Z,11.33
2023-05-01T10:31:52.260Z,7.30
2023-05-01T10:37:06.395Z,10.03
2023-05-01T10:42:14.582Z,8.47
2023-05-01T10:47:50.594Z,6.73
2023-05-01T10:53:22.619Z,9.17
2023-05-01T10:59:04.943Z,7.90
2023-05-01T11:04:30.770Z,4.70
2023-05-01T11:09:44.480Z,4.60
2023-05-01T11:15:05.984Z,5.13
2023-05-01T11:20:12.758Z,6.03
2023-05-01T11:25:25.063Z,6.77
2023-05-01T11:30:39.836Z,7.03
2023-05-01T11:35:47.680Z,5.27
2023-05-01T11:41:04.051Z,6.43
2023-05-01T11:46:09.611Z,7.53
2023-05-01T11:51:16.253Z,5.17
2023-05-01T11:56:27.552Z,6.03
2023-05-01T12:01:41.154Z,7.87
2023-05-01T12:06:49.157Z,7.87
2023-05-01T12:11:58.162Z,4.37
2023-05-01T12:17:04.488Z,6.97
2023-05-01T12:22:09.882Z,5.47
2023-05-01T12:27:21.262Z,3.10
2023-05-01T12:32:35.716Z,5.53
2023-05-01T12:37:41.724Z,6.50
2023-05-01T12:42:59.124Z,4.33
2023-05-01T12:48:04.308Z,3.80
2023-05-01T12:53:09.966Z,5.77
2023-05-01T12:58:18.506Z,6.03
2023-05-01T13:03:28.452Z,5.83
2023-05-01T13:08:35.159Z,4.47
2023-05-01T13:13:43.641Z,3.87
2023-05-01T13:18:50.825Z,5.87
2023-05-01T13:23:59.134Z,4.77
2023-05-01T13:29:08.346Z,3.13
2023-05-01T13:34:13.639Z,4.97
2023-05-01T13:39:23.083Z,3.97
2023-05-01T13:44:33.063Z,3.73
2023-05-01T13:49:40.653Z,2.60
2023-05-01T13:54:47.257Z,5.10
2023-05-01T13:59:55.469Z,3.53
2023-05-01T14:05:01.146Z,5.33
2023-05-01T14:10:07.416Z,2.43
2023-05-01T14:15:17.357Z,3.27
2023-05-01T14:20:22.942Z,2.63
2023-05-01T14:25:30.163Z,5.37
2023-05-01T14:30:40.170Z,2.70
2023-05-01T14:35:52.878Z,5.70
2023-05-01T14:41:01.219Z,2.33
2023-05-01T14:46:09.632Z,3.93
2023-05-01T14:51:15.699Z,5.43
2023-05-01T14:56:21.153Z,3.40
2023-05-01T15:01:31.633Z,2.77
2023-05-01T15:06:36.830Z,7.00
2023-05-01T15:11:42.103Z,3.83
2023-05-01T15:16:49.862Z,4.57
2023-05-01T15:21:55.090Z,4.77
2023-05-01T15:27:00.199Z,4.80
2023-05-01T15:32:12.529Z,2.67
2023-05-01T15:37:20.776Z,4.50
2023-05-01T15:42:25.845Z,3.73
2023-05-01T15:47:34.743Z,4.90
2023-05-01T15:52:40.127Z,5.30
2023-05-01T15:57:49.976Z,5.17
2023-05-01T16:02:57.751Z,5.70
2023-05-01T16:08:05.471Z,4.77
2023-05-01T16:13:10.595Z,3.83
2023-05-01T16:18:23.302Z,7.00
2023-05-01T16:23:29.162Z,6.23
2023-05-01T16:28:36.791Z,4.73
2023-05-01T16:33:44.553Z,3.40
2023-05-01T16:38:50.220Z,3.93
2023-05-01T16:43:55.487Z,4.57
2023-05-01T16:49:03.457Z,4.50
2023-05-01T16:54:08.469Z,3.43
2023-05-01T16:59:15.876Z,6.27
2023-05-01T17:04:23.682Z,3.77
2023-05-01T17:09:30.397Z,5.30
2023-05-01T17:14:37.804Z,3.90
2023-05-01T17:19:48.541Z,5.07
2023-05-01T17:24:53.593Z,8.07
2023-05-01T17:30:00.359Z,6.07
2023-05-01T17:35:15.856Z,7.17
2023-05-01T17:40:21.516Z,5.43
2023-05-01T17:45:26.776Z,6.33
2023-05-01T17:50:35.796Z,6.77
2023-05-01T17:55:43.057Z,6.27
2023-05-01T18:00:48.607Z,6.33
2023-05-01T18:05:57.081Z,5.27
2023-05-01T18:11:02.315Z,4.20
2023-05-01T18:16:09.110Z,4.07
2023-05-01T18:21:17.129Z,7.47
2023-05-01T18:26:22.747Z,5.33
2023-05-01T18:31:28.016Z,5.23
2023-05-01T18:36:35.845Z,6.50
2023-05-01T18:41:45.742Z,7.53
2023-05-01T18:46:51.146Z,6.37
2023-05-01T18:51:59.188Z,6.57
2023-05-01T18:57:04.346Z,8.90
2023-05-01T19:02:09.819Z,10.43
2023-05-01T19:07:18.330Z,8.20
2023-05-01T19:12:23.932Z,12.20
2023-05-01T19:17:29.251Z,12.53
2023-05-01T19:22:39.279Z,10.07
2023-05-01T19:27:45.525Z,13.67
2023-05-01T19:32:52.741Z,17.50
2023-05-01T19:38:02.078Z,16.53
2023-05-01T19:43:07.547Z,26.30
2023-05-01T19:48:13.012Z,13.53
2023-05-01T19:53:21.258Z,29.57
2023-05-01T19:58:27.008Z,22.70
2023-05-01T20:03:35.783Z,23.37
2023-05-01T20:08:44.611Z,24.80
2023-05-01T20:13:49.748Z,14.37
2023-05-01T20:18:55.005Z,16.33
2023-05-01T20:24:03.179Z,11.57
2023-05-01T20:29:09.587Z,11.63
2023-05-01T20:34:14.727Z,6.67
2023-05-01T20:39:23.046Z,7.73
2023-05-01T20:44:30.384Z,6.70
2023-05-01T20:49:36.005Z,11.10
2023-05-01T20:54:45.034Z,6.47
2023-05-01T20:59:51.162Z,6.17
2023-05-01T21:04:57.773Z,8.13
2023-05-01T21:10:10.796Z,6.80
2023-05-01T21:15:15.952Z,7.97
2023-05-01T21:20:32.277Z,8.97
2023-05-01T21:25:42.091Z,6.20
2023-05-01T21:30:47.452Z,10.10
2023-05-01T21:35:52.690Z,6.63
2023-05-01T21:41:00.817Z,9.93
2023-05-01T21:46:06.221Z,6.87
2023-05-01T21:51:11.675Z,10.60
2023-05-01T21:56:21.289Z,10.73
2023-05-01T22:01:26.920Z,8.63
2023-05-01T22:06:33.396Z,9.50
2023-05-01T22:11:42.408Z,8.53
2023-05-01T22:16:49.532Z,12.80
2023-05-01T22:21:54.808Z,7.57
2023-05-01T22:27:02.821Z,7.10
2023-05-01T22:32:08.679Z,6.43
2023-05-01T22:37:14.333Z,8.57
2023-05-01T22:42:22.665Z,9.70
2023-05-01T22:47:30.318Z,11.47
2023-05-01T22:52:35.666Z,12.57
2023-05-01T22:57:44.509Z,9.13
2023-05-01T23:02:49.818Z,10.37
2023-05-01T23:07:56.524Z,7.10
2023-05-01T23:13:07.227Z,8.67
2023-05-01T23:18:15.928Z,11.30
2023-05-01T23:23:23.318Z,13.27
2023-05-01T23:28:32.324Z,9.60
2023-05-01T23:33:39.635Z,10.57
2023-05-01T23:38:44.989Z,9.23
2023-05-01T23:43:53.258Z,9.50
2023-05-01T23:48:58.996Z,8.23
2023-05-01T23:54:07.063Z,8.10
2023-05-01T23:59:15.026Z,8.23
